Time;durP1;ratioP1;P1;durP2;ratioP2;P2;SDS_P1;SDS_P2;PMS_P1;PMS_P2;Temp;Humidity;BMP_temperature;BMP_pressure;BME280_temperature;BME280_humidity;BME280_pressure;Samples;Min_cycle;Max_cycle;Signal;HPM_P1;HPM_P2
2021/06/20 00:01:22;;;;;;;4.50;3.85;;;20.50;99.90;;;;;;5071699;28;20198;-74
2021/06/20 00:03:51;;;;;;;5.63;3.67;;;20.40;99.90;;;;;;5072198;28;20707;-74
2021/06/20 00:06:26;;;;;;;8.77;4.43;;;20.40;99.90;;;;;;5072075;28;20217;-74
2021/06/20 00:08:54;;;;;;;7.55;3.55;;;20.40;99.90;;;;;;5059882;28;20201;-74
2021/06/20 00:11:21;;;;;;;13.57;3.85;;;20.30;99.90;;;;;;5071375;28;20226;-73
2021/06/20 00:13:48;;;;;;;4.85;4.07;;;20.00;99.90;;;;;;5072465;28;20194;-73
2021/06/20 00:16:15;;;;;;;10.95;5.03;;;19.50;99.90;;;;;;5072190;28;20198;-73
2021/06/20 00:18:42;;;;;;;8.85;4.15;;;19.60;99.90;;;;;;5064464;28;20195;-74
2021/06/20 00:21:10;;;;;;;11.18;4.90;;;19.80;99.90;;;;;;5071871;28;20294;-73
2021/06/20 00:23:37;;;;;;;6.68;4.85;;;19.70;99.90;;;;;;5072165;28;20194;-73
2021/06/20 00:26:05;;;;;;;7.93;4.20;;;19.80;99.90;;;;;;5072028;28;20769;-73
2021/06/20 00:28:32;;;;;;;8.38;4.00;;;20.10;99.90;;;;;;5073069;28;20281;-74
2021/06/20 00:30:59;;;;;;;8.60;4.68;;;20.00;99.90;;;;;;5071738;28;20222;-74
2021/06/20 00:33:26;;;;;;;7.13;4.10;;;19.70;99.90;;;;;;5079705;28;20206;-74
2021/06/20 00:35:53;;;;;;;7.68;4.53;;;20.00;99.90;;;;;;5092550;28;20208;-74
2021/06/20 00:38:21;;;;;;;7.05;4.88;;;20.10;99.90;;;;;;5081854;28;20648;-74
2021/06/20 00:40:48;;;;;;;7.90;4.82;;;19.90;99.90;;;;;;5071887;28;20655;-74
2021/06/20 00:43:15;;;;;;;8.15;5.05;;;20.00;99.90;;;;;;5072136;28;20688;-74
2021/06/20 00:45:42;;;;;;;4.35;4.00;;;20.00;99.90;;;;;;5071880;28;20201;-74
2021/06/20 00:48:09;;;;;;;6.85;4.20;;;20.20;99.90;;;;;;5076204;28;20205;-74
2021/06/20 00:50:36;;;;;;;8.63;4.78;;;20.30;99.90;;;;;;5071583;28;20229;-73
2021/06/20 00:53:05;;;;;;;9.07;4.75;;;20.30;99.90;;;;;;5070963;28;20216;-74
2021/06/20 00:55:37;;;;;;;8.63;4.90;;;20.20;99.90;;;;;;5071979;28;20205;-73
2021/06/20 00:58:05;;;;;;;6.38;4.20;;;20.10;99.90;;;;;;5071103;28;20203;-73
2021/06/20 01:00:33;;;;;;;9.98;4.60;;;20.10;99.90;;;;;;5070770;28;20202;-74
2021/06/20 01:03:00;;;;;;;5.95;3.90;;;20.20;99.90;;;;;;5071073;28;20210;-72
2021/06/20 01:05:27;;;;;;;7.78;4.25;;;20.20;99.90;;;;;;5071080;28;20653;-72
2021/06/20 01:07:55;;;;;;;7.57;4.10;;;20.30;99.90;;;;;;5083425;28;20671;-72
2021/06/20 01:10:24;;;;;;;7.57;4.97;;;20.40;99.90;;;;;;5075935;28;20263;-72
2021/06/20 01:12:52;;;;;;;7.75;4.28;;;20.50;99.90;;;;;;5061561;28;20195;-72
2021/06/20 01:15:19;;;;;;;6.28;4.55;;;20.40;99.90;;;;;;5064956;28;20710;-72
2021/06/20 01:17:47;;;;;;;5.78;4.05;;;20.40;99.90;;;;;;5070384;28;20194;-72
2021/06/20 01:20:17;;;;;;;9.65;4.28;;;20.40;99.90;;;;;;5065108;28;20656;-72
2021/06/20 01:22:46;;;;;;;6.40;3.90;;;20.10;99.90;;;;;;5076692;28;20251;-72
2021/06/20 01:25:17;;;;;;;5.78;3.85;;;20.00;99.90;;;;;;5073442;28;20675;-72
2021/06/20 01:27:49;;;;;;;9.65;4.07;;;20.10;99.90;;;;;;5067703;28;20228;-72
2021/06/20 01:30:18;;;;;;;6.88;4.07;;;20.30;99.90;;;;;;5074797;28;20602;-72
2021/06/20 01:32:45;;;;;;;5.00;4.07;;;20.30;99.90;;;;;;5073786;28;20648;-72
2021/06/20 01:35:14;;;;;;;7.13;4.15;;;20.40;99.90;;;;;;5074935;28;20195;-72
2021/06/20 01:37:42;;;;;;;7.70;4.15;;;20.30;99.90;;;;;;5073185;28;20198;-72
2021/06/20 01:40:12;;;;;;;6.90;4.50;;;20.10;99.90;;;;;;5074533;28;20252;-72
2021/06/20 01:42:40;;;;;;;6.57;4.30;;;19.90;99.90;;;;;;5089541;28;20603;-72
2021/06/20 01:45:09;;;;;;;8.52;4.10;;;20.10;99.90;;;;;;5081862;28;20528;-72
2021/06/20 01:47:37;;;;;;;10.10;4.30;;;20.20;99.90;;;;;;5073570;28;20260;-72
2021/06/20 01:50:10;;;;;;;15.23;5.30;;;20.50;99.90;;;;;;5074301;28;20219;-72
2021/06/20 01:52:38;;;;;;;11.65;5.15;;;20.40;99.90;;;;;;5073826;28;20195;-72
2021/06/20 01:55:06;;;;;;;10.93;5.30;;;20.10;99.90;;;;;;5074173;28;20206;-72
2021/06/20 01:57:37;;;;;;;10.63;4.72;;;19.80;99.90;;;;;;5084641;28;20251;-72
2021/06/20 02:00:08;;;;;;;8.32;4.75;;;19.80;99.90;;;;;;5093413;28;20197;-72
2021/06/20 02:02:35;;;;;;;10.75;5.68;;;20.00;99.90;;;;;;5073984;28;20256;-72
2021/06/20 02:05:03;;;;;;;13.10;5.18;;;20.10;99.90;;;;;;5072970;28;20717;-72
2021/06/20 02:07:30;;;;;;;8.70;4.90;;;20.20;99.90;;;;;;5060023;28;20202;-72
2021/06/20 02:09:57;;;;;;;6.13;4.90;;;20.30;99.90;;;;;;5076761;28;20676;-72
2021/06/20 02:12:27;;;;;;;7.70;5.60;;;20.40;99.90;;;;;;5069368;28;20202;-72
2021/06/20 02:14:55;;;;;;;8.85;4.70;;;20.50;99.90;;;;;;5081401;28;20201;-72
2021/06/20 02:17:24;;;;;;;6.10;4.70;;;20.60;99.90;;;;;;5075859;28;20199;-72
2021/06/20 02:19:53;;;;;;;10.80;5.20;;;20.60;99.90;;;;;;5082622;28;20636;-72
2021/06/20 02:22:20;;;;;;;7.30;4.68;;;20.60;99.90;;;;;;5081917;28;20255;-72
2021/06/20 02:24:47;;;;;;;6.47;5.30;;;20.60;99.90;;;;;;5079439;28;20645;-75
2021/06/20 02:27:14;;;;;;;5.47;4.55;;;20.50;99.90;;;;;;5072247;28;20543;-75
2021/06/20 02:29:43;;;;;;;8.68;4.70;;;20.60;99.90;;;;;;5066838;28;20664;-75
2021/06/20 02:32:12;;;;;;;8.43;4.90;;;20.60;99.90;;;;;;5062636;28;20231;-75
2021/06/20 02:34:41;;;;;;;6.43;4.78;;;20.70;99.90;;;;;;5065977;28;20645;-74
2021/06/20 02:37:09;;;;;;;8.50;4.78;;;20.60;99.90;;;;;;5062967;28;20654;-74
2021/06/20 02:39:38;;;;;;;7.68;4.35;;;20.70;99.90;;;;;;5076219;28;20205;-74
2021/06/20 02:42:05;;;;;;;10.05;5.05;;;20.70;99.90;;;;;;5064498;28;20219;-74
2021/06/20 02:44:32;;;;;;;10.00;5.22;;;20.80;99.90;;;;;;5067506;28;20206;-74
2021/06/20 02:47:01;;;;;;;8.20;4.40;;;20.80;99.90;;;;;;5071359;28;20254;-75
2021/06/20 02:49:30;;;;;;;9.77;4.50;;;20.80;99.90;;;;;;5068341;28;20294;-75
2021/06/20 02:51:57;;;;;;;8.80;4.30;;;20.70;99.90;;;;;;5074356;28;20260;-76
2021/06/20 02:54:25;;;;;;;5.32;3.40;;;21.10;99.90;;;;;;5068616;28;20718;-74
2021/06/20 02:56:52;;;;;;;7.03;2.78;;;21.30;99.90;;;;;;5062554;28;20244;-74
2021/06/20 02:59:19;;;;;;;5.45;2.35;;;21.30;99.90;;;;;;5071489;28;20210;-74
2021/06/20 03:01:47;;;;;;;8.35;2.50;;;21.20;99.90;;;;;;5069851;28;20202;-74
2021/06/20 03:04:14;;;;;;;7.25;2.50;;;20.90;99.90;;;;;;5081016;28;20560;-74
2021/06/20 03:06:42;;;;;;;5.90;2.47;;;20.70;99.90;;;;;;5068733;28;20293;-74
2021/06/20 03:09:10;;;;;;;7.05;2.53;;;20.50;99.90;;;;;;5068707;28;20206;-74
2021/06/20 03:11:41;;;;;;;4.00;1.90;;;20.50;99.90;;;;;;5072185;28;20668;-74
2021/06/20 03:14:11;;;;;;;7.68;2.10;;;20.40;99.90;;;;;;5071972;28;20202;-74
2021/06/20 03:16:38;;;;;;;4.07;1.55;;;20.50;99.90;;;;;;5070985;28;20199;-74
2021/06/20 03:19:06;;;;;;;1.50;1.38;;;20.30;99.90;;;;;;5071950;28;20198;-74
2021/06/20 03:21:33;;;;;;;3.22;1.40;;;20.30;99.90;;;;;;5072688;28;20206;-74
2021/06/20 03:24:02;;;;;;;4.13;1.63;;;20.20;99.90;;;;;;5076435;28;20205;-74
2021/06/20 03:26:29;;;;;;;11.60;2.78;;;20.40;99.90;;;;;;5069944;28;20225;-72
2021/06/20 03:28:57;;;;;;;9.25;2.50;;;20.40;99.90;;;;;;5082973;28;20205;-72
2021/06/20 03:31:24;;;;;;;11.70;2.70;;;20.30;99.90;;;;;;5090899;28;20277;-72
2021/06/20 03:33:51;;;;;;;11.45;3.05;;;20.10;99.90;;;;;;5079189;28;20581;-72
2021/06/20 03:36:19;;;;;;;8.45;3.33;;;19.90;99.90;;;;;;5071291;28;20814;-72
2021/06/20 03:38:46;;;;;;;10.98;3.63;;;19.60;99.90;;;;;;5072234;28;20202;-72
2021/06/20 03:41:14;;;;;;;15.05;4.07;;;19.50;99.90;;;;;;5078696;28;20837;-72
2021/06/20 03:43:42;;;;;;;8.38;3.00;;;19.50;99.90;;;;;;5070557;28;20614;-72
2021/06/20 03:46:10;;;;;;;8.85;3.20;;;19.30;99.90;;;;;;5069345;28;20294;-72
2021/06/20 03:48:38;;;;;;;11.70;3.60;;;19.30;99.90;;;;;;5063627;28;20195;-73
2021/06/20 03:51:06;;;;;;;11.98;3.10;;;19.40;99.90;;;;;;5068302;28;20218;-72
2021/06/20 03:53:33;;;;;;;9.07;2.67;;;19.50;99.90;;;;;;5070664;28;20210;-73
2021/06/20 03:56:00;;;;;;;12.70;3.20;;;19.40;99.90;;;;;;5071463;28;20652;-72
2021/06/20 03:58:28;;;;;;;11.10;3.38;;;19.50;99.90;;;;;;5071648;28;20209;-73
2021/06/20 04:00:55;;;;;;;7.63;2.72;;;19.50;99.90;;;;;;5064254;28;20199;-73
2021/06/20 04:03:22;;;;;;;18.25;5.18;;;19.50;99.90;;;;;;5072980;28;20679;-72
2021/06/20 04:05:50;;;;;;;25.98;6.53;;;19.50;99.90;;;;;;5076757;28;20233;-69
2021/06/20 04:08:17;;;;;;;17.98;5.07;;;19.30;99.90;;;;;;5072872;28;20289;-69
2021/06/20 04:10:44;;;;;;;17.45;5.57;;;19.00;99.90;;;;;;5071071;28;20214;-72
2021/06/20 04:13:11;;;;;;;24.83;6.63;;;18.90;99.90;;;;;;5070611;28;20248;-71
2021/06/20 04:15:40;;;;;;;15.98;4.53;;;18.90;99.90;;;;;;5069833;28;20202;-74
2021/06/20 04:18:07;;;;;;;20.55;4.93;;;18.70;99.90;;;;;;5069519;28;20202;-69
2021/06/20 04:20:34;;;;;;;15.50;4.75;;;18.70;99.90;;;;;;5077694;28;20221;-69
2021/06/20 04:23:01;;;;;;;15.43;4.32;;;18.80;99.90;;;;;;5069086;28;20571;-69
2021/06/20 04:25:29;;;;;;;12.65;3.90;;;18.70;99.90;;;;;;5069028;28;20600;-71
2021/06/20 04:27:56;;;;;;;15.70;4.22;;;18.80;99.90;;;;;;5068718;28;20626;-71
2021/06/20 04:30:24;;;;;;;11.55;3.80;;;19.00;99.90;;;;;;5068489;28;20259;-71
2021/06/20 04:32:53;;;;;;;12.25;3.92;;;19.10;99.90;;;;;;5068331;28;20226;-72
2021/06/20 04:35:20;;;;;;;14.48;4.03;;;19.10;99.90;;;;;;5069417;28;20687;-72
2021/06/20 04:37:49;;;;;;;15.15;4.32;;;19.00;99.90;;;;;;5068024;28;20202;-71
2021/06/20 04:40:19;;;;;;;20.00;4.57;;;18.80;99.90;;;;;;5068792;28;20255;-72
2021/06/20 04:42:54;;;;;;;14.52;4.70;;;18.90;99.90;;;;;;5068278;28;20234;-72
2021/06/20 04:45:21;;;;;;;10.75;4.15;;;19.00;99.90;;;;;;5069560;28;20206;-72
2021/06/20 04:47:49;;;;;;;11.43;4.13;;;18.90;99.90;;;;;;5067832;28;20199;-72
2021/06/20 04:50:17;;;;;;;10.82;4.07;;;18.90;99.90;;;;;;5069540;28;20275;-72
2021/06/20 04:52:44;;;;;;;10.95;4.38;;;19.00;99.90;;;;;;5065895;28;20230;-72
2021/06/20 04:55:12;;;;;;;11.07;4.70;;;19.00;99.90;;;;;;5050502;28;20657;-71
2021/06/20 04:57:40;;;;;;;16.65;4.45;;;19.00;99.90;;;;;;5058134;28;20271;-71
2021/06/20 05:00:09;;;;;;;9.32;4.05;;;19.10;99.90;;;;;;5065432;28;20649;-74
2021/06/20 05:02:37;;;;;;;11.48;3.88;;;19.20;99.90;;;;;;5072340;28;20206;-74
2021/06/20 05:05:05;;;;;;;11.02;4.68;;;19.30;99.90;;;;;;5075004;28;20203;-74
2021/06/20 05:07:34;;;;;;;15.35;4.68;;;19.30;99.90;;;;;;5075013;28;20358;-71
2021/06/20 05:10:01;;;;;;;12.73;3.70;;;19.60;99.90;;;;;;5073592;28;20229;-71
2021/06/20 05:12:28;;;;;;;11.07;3.67;;;19.50;99.90;;;;;;5081989;28;20222;-71
2021/06/20 05:14:55;;;;;;;10.25;4.55;;;19.60;99.90;;;;;;5076728;28;20202;-69
2021/06/20 05:17:22;;;;;;;11.48;4.15;;;19.60;99.90;;;;;;5077556;28;20228;-70
2021/06/20 05:19:49;;;;;;;13.07;3.97;;;19.60;99.90;;;;;;5087770;28;20319;-71
2021/06/20 05:22:16;;;;;;;6.82;3.63;;;19.70;99.90;;;;;;5076246;28;20359;-71
2021/06/20 05:24:44;;;;;;;10.10;3.83;;;19.70;99.90;;;;;;5062299;28;20244;-71
2021/06/20 05:27:11;;;;;;;10.93;4.00;;;19.80;99.90;;;;;;5066989;28;20252;-70
2021/06/20 05:29:39;;;;;;;7.82;3.58;;;19.80;99.90;;;;;;5067560;28;20546;-71
2021/06/20 05:32:07;;;;;;;8.07;3.95;;;20.00;99.90;;;;;;5068799;28;20226;-70
2021/06/20 05:34:34;;;;;;;8.65;3.58;;;20.10;99.90;;;;;;5061176;28;20202;-69
2021/06/20 05:37:01;;;;;;;8.95;3.70;;;20.10;99.90;;;;;;5068619;28;20271;-70
2021/06/20 05:39:28;;;;;;;11.15;3.83;;;20.20;99.90;;;;;;5069420;28;20202;-70
2021/06/20 05:41:56;;;;;;;6.85;3.50;;;20.00;99.90;;;;;;5068742;28;20641;-70
2021/06/20 05:44:23;;;;;;;7.03;4.07;;;20.20;99.90;;;;;;5072008;28;20206;-71
2021/06/20 05:46:50;;;;;;;9.48;4.18;;;20.20;99.90;;;;;;5084470;28;20660;-70
2021/06/20 05:49:17;;;;;;;11.20;4.75;;;20.30;99.90;;;;;;5070992;28;20213;-70
2021/06/20 05:51:44;;;;;;;8.32;3.85;;;20.30;99.90;;;;;;5071922;28;20636;-71
2021/06/20 05:54:11;;;;;;;10.50;3.85;;;20.40;99.90;;;;;;5058211;28;20450;-71
2021/06/20 05:56:38;;;;;;;7.72;3.65;;;20.60;99.90;;;;;;5075116;28;20248;-71
2021/06/20 05:59:07;;;;;;;12.27;4.13;;;20.60;99.90;;;;;;5071869;28;20203;-71
2021/06/20 06:01:35;;;;;;;10.60;4.07;;;20.50;99.90;;;;;;5069077;28;20256;-71
2021/06/20 06:04:02;;;;;;;8.13;3.55;;;20.70;99.90;;;;;;5063923;28;20210;-71
2021/06/20 06:06:29;;;;;;;8.63;3.90;;;20.90;99.90;;;;;;5081751;28;20190;-71
2021/06/20 06:08:56;;;;;;;10.13;4.22;;;21.10;99.90;;;;;;5083918;28;20201;-72
2021/06/20 06:11:23;;;;;;;7.93;3.90;;;21.30;99.90;;;;;;5072549;28;20234;-72
2021/06/20 06:13:50;;;;;;;8.38;4.57;;;21.50;99.90;;;;;;5076471;28;20205;-72
2021/06/20 06:16:18;;;;;;;8.55;4.65;;;21.50;99.90;;;;;;5068014;28;20203;-72
2021/06/20 06:18:45;;;;;;;12.77;5.30;;;21.70;99.90;;;;;;5074204;28;20206;-72
2021/06/20 06:21:12;;;;;;;12.45;4.88;;;21.80;99.90;;;;;;5073781;28;20198;-72
2021/06/20 06:23:39;;;;;;;8.88;4.93;;;22.00;99.90;;;;;;5071669;28;20199;-72
2021/06/20 06:26:06;;;;;;;8.70;4.32;;;21.80;99.90;;;;;;5070605;28;20221;-72
2021/06/20 06:28:34;;;;;;;9.95;3.85;;;21.70;99.90;;;;;;5071070;28;20198;-72
2021/06/20 06:31:01;;;;;;;9.38;4.57;;;22.10;99.90;;;;;;5067784;28;20272;-73
2021/06/20 06:33:30;;;;;;;9.50;3.80;;;21.90;99.90;;;;;;5072062;28;20230;-71
2021/06/20 06:35:57;;;;;;;11.30;4.30;;;22.30;99.90;;;;;;5072064;28;20198;-72
2021/06/20 06:38:24;;;;;;;11.13;4.53;;;22.10;99.90;;;;;;5071067;28;20652;-70
2021/06/20 06:40:51;;;;;;;9.02;4.10;;;22.30;99.90;;;;;;5071371;28;20206;-73
2021/06/20 06:43:18;;;;;;;10.73;4.30;;;22.20;99.90;;;;;;5069932;28;20206;-73
2021/06/20 06:45:46;;;;;;;9.05;4.35;;;22.30;99.90;;;;;;5072146;28;20293;-73
2021/06/20 06:48:13;;;;;;;10.38;4.28;;;22.30;99.90;;;;;;5071177;28;20350;-73
2021/06/20 06:50:42;;;;;;;15.02;5.25;;;22.30;99.90;;;;;;5072384;28;20244;-73
2021/06/20 06:53:09;;;;;;;9.20;4.68;;;22.30;99.90;;;;;;5068237;28;20288;-72
2021/06/20 06:55:36;;;;;;;11.38;4.55;;;22.30;99.90;;;;;;5071363;28;20198;-72
2021/06/20 06:58:03;;;;;;;8.63;4.60;;;22.40;99.90;;;;;;5071565;28;20649;-72
2021/06/20 07:00:30;;;;;;;10.40;4.25;;;22.50;99.90;;;;;;5071553;28;20199;-73
2021/06/20 07:02:58;;;;;;;8.95;5.03;;;22.60;99.90;;;;;;5062004;28;20260;-71
2021/06/20 07:05:26;;;;;;;9.55;4.35;;;22.60;99.90;;;;;;5070982;28;20208;-71
2021/06/20 07:07:54;;;;;;;13.20;4.80;;;22.50;99.90;;;;;;5071835;28;20233;-71
2021/06/20 07:10:24;;;;;;;10.18;3.80;;;22.60;99.90;;;;;;5071220;28;20596;-71
2021/06/20 07:12:51;;;;;;;13.00;5.10;;;22.60;99.90;;;;;;5064361;28;20636;-71
2021/06/20 07:15:18;;;;;;;7.30;4.30;;;22.60;99.90;;;;;;5079597;28;20210;-73
2021/06/20 07:17:45;;;;;;;9.70;4.30;;;22.70;99.90;;;;;;5070474;28;20203;-70
2021/06/20 07:20:16;;;;;;;7.75;4.13;;;22.60;99.90;;;;;;5070382;28;20194;-70
2021/06/20 07:22:44;;;;;;;7.35;3.80;;;22.60;99.90;;;;;;5072499;28;20195;-71
2021/06/20 07:25:15;;;;;;;7.97;4.70;;;22.70;99.90;;;;;;5072494;28;20187;-72
2021/06/20 07:27:44;;;;;;;8.07;4.40;;;22.70;99.90;;;;;;5082089;28;20201;-70
2021/06/20 07:30:14;;;;;;;8.75;4.22;;;22.70;99.90;;;;;;5092835;28;20247;-74
2021/06/20 07:32:44;;;;;;;7.55;3.90;;;22.70;99.90;;;;;;5086809;28;20301;-71
2021/06/20 07:35:12;;;;;;;9.02;4.70;;;22.80;99.90;;;;;;5092515;28;20631;-71
2021/06/20 07:37:39;;;;;;;6.03;4.00;;;22.80;99.90;;;;;;5071387;28;20209;-71
2021/06/20 07:40:10;;;;;;;15.68;5.03;;;22.90;99.90;;;;;;5072721;28;20202;-71
2021/06/20 07:42:38;;;;;;;9.48;4.43;;;22.90;99.90;;;;;;5066220;28;20236;-71
2021/06/20 07:45:07;;;;;;;9.15;4.50;;;23.00;99.90;;;;;;5072566;28;20289;-71
2021/06/20 07:47:36;;;;;;;7.63;3.90;;;22.90;99.90;;;;;;5082066;28;20366;-70
2021/06/20 07:50:05;;;;;;;10.82;4.97;;;23.10;99.90;;;;;;5092436;28;20237;-71
2021/06/20 07:52:32;;;;;;;7.53;4.53;;;23.00;99.90;;;;;;5073532;28;20225;-71
2021/06/20 07:54:59;;;;;;;9.52;4.80;;;23.20;99.90;;;;;;5072497;28;20198;-71
2021/06/20 07:57:26;;;;;;;8.35;4.38;;;23.10;99.90;;;;;;5076468;28;20721;-71
2021/06/20 07:59:54;;;;;;;7.25;3.78;;;23.10;99.90;;;;;;5071412;28;20595;-71
2021/06/20 08:02:21;;;;;;;10.38;4.43;;;23.20;99.90;;;;;;5104006;22;20201;-67
2021/06/20 08:04:48;;;;;;;7.00;4.03;;;23.10;99.90;;;;;;5091692;28;20677;-67
2021/06/20 08:07:15;;;;;;;7.90;4.15;;;23.10;99.90;;;;;;5091335;28;20201;-67
2021/06/20 08:09:43;;;;;;;7.70;3.95;;;23.10;99.90;;;;;;5090353;28;20740;-67
2021/06/20 08:12:11;;;;;;;11.30;4.30;;;23.20;99.90;;;;;;5086189;28;20249;-67
2021/06/20 08:14:38;;;;;;;8.25;4.22;;;23.30;99.90;;;;;;5091698;28;20663;-67
2021/06/20 08:17:06;;;;;;;12.98;4.60;;;23.40;99.90;;;;;;5089994;28;20608;-71
2021/06/20 08:19:33;;;;;;;10.43;4.28;;;23.50;99.90;;;;;;5071321;28;20301;-71
2021/06/20 08:22:00;;;;;;;7.40;4.20;;;23.50;99.90;;;;;;5076385;28;20292;-72
2021/06/20 08:24:27;;;;;;;9.50;4.32;;;23.60;99.90;;;;;;5091678;28;20198;-72
2021/06/20 08:26:54;;;;;;;5.88;4.10;;;23.50;99.90;;;;;;5087872;28;20198;-71
2021/06/20 08:29:21;;;;;;;5.57;3.97;;;23.60;99.90;;;;;;5095759;28;20204;-72
2021/06/20 08:31:48;;;;;;;7.65;4.03;;;23.70;99.90;;;;;;5092846;28;20212;-71
2021/06/20 08:34:16;;;;;;;6.40;4.20;;;23.90;99.90;;;;;;5094530;28;20201;-71
2021/06/20 08:36:43;;;;;;;8.50;4.32;;;23.80;99.90;;;;;;5093255;28;20208;-72
2021/06/20 08:39:10;;;;;;;6.05;4.25;;;23.90;99.90;;;;;;5095599;28;20214;-70
2021/06/20 08:41:40;;;;;;;6.53;4.03;;;24.00;99.90;;;;;;5092181;28;20202;-72
2021/06/20 08:44:18;;;;;;;8.38;4.38;;;24.40;99.90;;;;;;5095685;28;20201;-71
2021/06/20 08:46:45;;;;;;;4.97;3.50;;;24.70;99.90;;;;;;5093565;28;20200;-71
2021/06/20 08:49:12;;;;;;;7.15;4.22;;;24.60;99.90;;;;;;5091194;28;20566;-71
2021/06/20 08:51:41;;;;;;;7.18;3.92;;;24.70;99.90;;;;;;5086718;28;20187;-71
2021/06/20 08:54:12;;;;;;;6.65;3.80;;;24.80;99.90;;;;;;5095169;28;20222;-72
2021/06/20 08:56:39;;;;;;;7.60;3.72;;;24.90;99.90;;;;;;5094270;28;20270;-70
2021/06/20 08:59:06;;;;;;;8.10;3.80;;;24.50;99.90;;;;;;5095142;28;20228;-72
2021/06/20 09:01:36;;;;;;;5.45;4.20;;;24.90;99.90;;;;;;5085133;28;20228;-72
2021/06/20 09:04:04;;;;;;;6.72;4.07;;;25.60;99.90;;;;;;5095002;28;20213;-72
2021/06/20 09:06:31;;;;;;;6.07;4.13;;;26.20;99.90;;;;;;5084914;28;20236;-71
2021/06/20 09:09:01;;;;;;;9.02;4.25;;;25.90;99.90;;;;;;5094894;28;20576;-72
2021/06/20 09:11:30;;;;;;;7.03;3.50;;;25.60;99.90;;;;;;5093404;28;20201;-72
2021/06/20 09:14:02;;;;;;;7.60;4.40;;;26.20;99.90;;;;;;5087148;28;20678;-72
2021/06/20 09:16:29;;;;;;;5.18;3.90;;;27.00;99.90;;;;;;5087984;28;20625;-71
2021/06/20 09:18:56;;;;;;;8.02;3.65;;;26.80;99.90;;;;;;5092146;28;20197;-72
2021/06/20 09:21:24;;;;;;;6.10;3.63;;;26.90;99.90;;;;;;5088961;28;20197;-71
2021/06/20 09:23:52;;;;;;;9.05;3.92;;;27.00;99.90;;;;;;5095046;28;20204;-71
2021/06/20 09:26:32;;;;;;;7.60;4.63;;;26.80;99.90;;;;;;5097216;28;20203;-71
2021/06/20 09:28:59;;;;;;;7.07;4.05;;;27.00;99.90;;;;;;5088244;28;20205;-71
2021/06/20 09:31:27;;;;;;;7.82;3.40;;;26.90;99.90;;;;;;5094901;28;20587;-71
2021/06/20 09:34:01;;;;;;;6.38;3.40;;;26.70;99.90;;;;;;5091297;28;20217;-72
2021/06/20 09:36:31;;;;;;;8.32;3.67;;;27.00;99.90;;;;;;5092700;28;20197;-71
2021/06/20 09:38:57;;;;;;;7.38;3.85;;;27.40;99.90;;;;;;5094749;28;20216;-70
2021/06/20 09:41:26;;;;;;;6.18;4.07;;;27.60;99.90;;;;;;5094648;28;20638;-71
2021/06/20 09:43:55;;;;;;;8.50;4.13;;;28.00;99.90;;;;;;5094272;28;20208;-71
2021/06/20 09:46:22;;;;;;;9.75;3.70;;;28.20;99.90;;;;;;5094754;28;20186;-70
2021/06/20 09:48:49;;;;;;;6.28;3.65;;;28.10;99.90;;;;;;5094460;28;20194;-70
2021/06/20 09:51:18;;;;;;;4.78;3.50;;;28.30;99.90;;;;;;5094744;28;20635;-70
2021/06/20 09:53:47;;;;;;;6.15;3.42;;;28.40;99.90;;;;;;5091716;28;20217;-70
2021/06/20 09:56:20;;;;;;;7.53;3.75;;;28.80;99.90;;;;;;5078291;28;20205;-70
2021/06/20 09:58:57;;;;;;;6.90;3.50;;;28.60;99.90;;;;;;5091326;28;21067;-70
2021/06/20 10:01:25;;;;;;;6.25;3.38;;;28.60;99.90;;;;;;5085418;28;20209;-70
2021/06/20 10:03:52;;;;;;;6.55;3.30;;;28.40;99.90;;;;;;5088219;28;20202;-70
2021/06/20 10:06:19;;;;;;;7.63;3.90;;;28.30;99.90;;;;;;5084362;28;20896;-70
2021/06/20 10:08:46;;;;;;;5.57;3.80;;;28.40;99.90;;;;;;5090622;28;20549;-71
2021/06/20 10:11:16;;;;;;;4.72;3.70;;;28.60;99.90;;;;;;5089817;28;20667;-70
2021/06/20 10:13:43;;;;;;;7.00;3.95;;;28.30;99.90;;;;;;5089515;28;20679;-70
2021/06/20 10:16:21;;;;;;;5.53;3.63;;;28.90;99.90;;;;;;5085303;28;20711;-71
2021/06/20 10:18:58;;;;;;;6.35;3.90;;;28.90;99.90;;;;;;5085116;28;20201;-70
2021/06/20 10:21:30;;;;;;;6.85;3.97;;;29.10;99.90;;;;;;5083362;28;20573;-70
2021/06/20 10:24:13;;;;;;;5.82;3.92;;;28.70;99.90;;;;;;5086546;28;20556;-70
2021/06/20 10:26:43;;;;;;;10.52;4.35;;;28.20;99.90;;;;;;5085245;28;20324;-71
2021/06/20 10:29:21;;;;;;;5.50;4.00;;;29.10;99.90;;;;;;5081335;28;20205;-71
2021/06/20 10:31:50;;;;;;;8.00;3.88;;;29.20;99.90;;;;;;5086980;28;20204;-70
2021/06/20 10:34:19;;;;;;;6.68;3.75;;;29.10;99.90;;;;;;5087464;28;20217;-71
2021/06/20 10:36:47;;;;;;;7.10;4.10;;;28.60;99.90;;;;;;5084056;28;20670;-70
2021/06/20 10:39:14;;;;;;;6.93;3.75;;;29.10;99.90;;;;;;5085699;28;20213;-70
2021/06/20 10:41:41;;;;;;;5.05;3.15;;;29.40;99.90;;;;;;5088253;28;20210;-71
2021/06/20 10:44:08;;;;;;;6.60;2.70;;;29.10;99.90;;;;;;5089874;28;20205;-71
2021/06/20 10:46:36;;;;;;;7.00;3.20;;;29.40;99.90;;;;;;5083001;28;20229;-69
2021/06/20 10:49:15;;;;;;;3.72;2.55;;;28.70;99.90;;;;;;5078734;28;20724;-70
2021/06/20 10:51:42;;;;;;;3.75;2.85;;;28.70;99.90;;;;;;5082191;28;20651;-70
2021/06/20 10:54:09;;;;;;;4.43;3.30;;;29.30;99.90;;;;;;5087194;28;20578;-69
2021/06/20 10:56:35;;;;;;;4.72;2.65;;;29.30;99.90;;;;;;5089179;28;20259;-69
2021/06/20 10:59:02;;;;;;;4.43;2.30;;;29.10;99.90;;;;;;5082201;28;20647;-69
2021/06/20 11:01:39;;;;;;;4.95;2.70;;;29.30;99.90;;;;;;5087851;28;20212;-70
2021/06/20 11:04:07;;;;;;;5.80;2.95;;;29.50;99.90;;;;;;5089941;28;20672;-69
2021/06/20 11:06:34;;;;;;;3.40;3.10;;;30.10;99.90;;;;;;5087935;28;20204;-69
2021/06/20 11:09:03;;;;;;;5.82;2.70;;;29.80;99.90;;;;;;5082847;28;20219;-70
2021/06/20 11:11:31;;;;;;;4.88;2.80;;;30.20;99.90;;;;;;5083125;28;20270;-70
2021/06/20 11:14:07;;;;;;;4.32;2.53;;;29.80;99.90;;;;;;5094769;28;20213;-69
2021/06/20 11:16:35;;;;;;;5.50;3.17;;;29.90;99.90;;;;;;5082655;28;20538;-69
2021/06/20 11:19:10;;;;;;;3.83;2.67;;;29.90;99.90;;;;;;5089063;28;20677;-69
2021/06/20 11:21:38;;;;;;;5.80;2.85;;;30.10;99.90;;;;;;5090943;28;20197;-69
2021/06/20 11:24:07;;;;;;;3.50;3.10;;;30.20;99.90;;;;;;5088107;28;20572;-69
2021/06/20 11:26:34;;;;;;;3.28;2.60;;;30.20;99.90;;;;;;5087314;28;20557;-69
2021/06/20 11:29:02;;;;;;;3.53;2.78;;;29.40;99.90;;;;;;5082259;28;20202;-69
2021/06/20 11:31:29;;;;;;;3.38;2.75;;;29.60;99.90;;;;;;5082288;28;20234;-69
2021/06/20 11:33:58;;;;;;;4.15;2.95;;;29.80;99.90;;;;;;5086993;28;20559;-69
2021/06/20 11:36:28;;;;;;;3.35;2.72;;;30.70;99.90;;;;;;5092195;28;20618;-69
2021/06/20 11:38:55;;;;;;;4.03;2.90;;;30.20;99.90;;;;;;5092472;28;20198;-69
2021/06/20 11:41:24;;;;;;;2.90;2.60;;;30.10;99.90;;;;;;5083692;28;20205;-69
2021/06/20 11:44:00;;;;;;;4.18;2.78;;;29.50;99.90;;;;;;5081201;28;20198;-69
2021/06/20 11:46:29;;;;;;;2.72;2.53;;;29.60;99.90;;;;;;5088820;28;20562;-69
2021/06/20 11:48:59;;;;;;;5.05;3.03;;;30.00;99.90;;;;;;5090271;28;20208;-69
2021/06/20 11:51:32;;;;;;;3.83;2.50;;;29.40;99.90;;;;;;5085826;28;20221;-70
2021/06/20 11:54:31;;;;;;;2.42;2.03;;;29.50;99.90;;;;;;5080352;28;20229;-70
2021/06/20 11:57:04;;;;;;;7.72;5.97;;;29.70;99.90;;;;;;5084225;28;20198;-69
2021/06/20 11:59:34;;;;;;;3.72;3.10;;;29.40;99.90;;;;;;5091568;28;20206;-69
2021/06/20 12:02:02;;;;;;;2.65;2.03;;;29.10;99.90;;;;;;5090134;28;20311;-70
2021/06/20 12:04:31;;;;;;;4.43;2.33;;;28.90;99.90;;;;;;5076191;28;20281;-70
2021/06/20 12:07:04;;;;;;;2.33;2.13;;;29.10;99.90;;;;;;5091708;28;20565;-70
2021/06/20 12:09:31;;;;;;;2.63;2.42;;;29.40;99.90;;;;;;5071949;28;20247;-69
2021/06/20 12:12:00;;;;;;;2.85;2.30;;;29.10;99.90;;;;;;5076929;28;20205;-69
2021/06/20 12:14:29;;;;;;;3.03;2.60;;;29.20;99.90;;;;;;5071941;28;20232;-69
2021/06/20 12:16:57;;;;;;;2.53;2.30;;;29.00;99.90;;;;;;5076359;28;20221;-69
2021/06/20 12:19:25;;;;;;;5.60;2.60;;;28.90;99.90;;;;;;5072091;28;20213;-69
2021/06/20 12:22:06;;;;;;;4.05;2.47;;;29.50;99.90;;;;;;5075735;28;20635;-70
2021/06/20 12:24:38;;;;;;;4.00;2.35;;;29.50;99.90;;;;;;5081622;28;20658;-69
2021/06/20 12:27:06;;;;;;;2.65;2.20;;;30.10;99.90;;;;;;5096253;28;20209;-69
2021/06/20 12:29:34;;;;;;;2.05;1.80;;;30.20;99.90;;;;;;5096104;28;20193;-69
2021/06/20 12:32:03;;;;;;;4.15;2.33;;;29.90;99.90;;;;;;5091804;28;20208;-69
2021/06/20 12:34:42;;;;;;;3.22;2.53;;;30.00;99.90;;;;;;5091635;28;20224;-69
2021/06/20 12:37:10;;;;;;;2.60;2.38;;;30.40;99.90;;;;;;5091214;28;20567;-69
2021/06/20 12:39:46;;;;;;;2.60;2.40;;;30.30;99.90;;;;;;5072106;28;20670;-69
2021/06/20 12:42:13;;;;;;;3.13;2.17;;;30.40;99.90;;;;;;5079653;28;20201;-69
2021/06/20 12:44:44;;;;;;;2.42;2.30;;;30.10;99.90;;;;;;5072662;28;20546;-69
2021/06/20 12:47:11;;;;;;;2.97;2.30;;;29.70;99.90;;;;;;5076839;28;20202;-69
2021/06/20 12:49:39;;;;;;;3.55;2.40;;;29.70;99.90;;;;;;5078906;28;20221;-69